Time;durP1;ratioP1;P1;durP2;ratioP2;P2;SDS_P1;SDS_P2;PMS_P1;PMS_P2;Temp;Humidity;BMP_temperature;BMP_pressure;BME280_temperature;BME280_humidity;BME280_pressure;Samples;Min_cycle;Max_cycle;Signal;HPM_P1;HPM_P2
2022/11/08 00:01:52;;;;;;;2.70;1.83;;;17.30;57.70;;;;;;5056852;28;20195;-72
2022/11/08 00:04:20;;;;;;;2.95;1.98;;;17.30;57.80;;;;;;5056776;28;20210;-73
2022/11/08 00:15:01;;;;;;;2.40;2.20;;;17.30;57.80;;;;;;5056370;28;20266;-73
2022/11/08 00:17:30;;;;;;;2.38;2.08;;;17.20;57.90;;;;;;5056423;28;20218;-72
2022/11/08 00:19:57;;;;;;;2.63;2.10;;;17.20;57.70;;;;;;5056514;28;20195;-72
2022/11/08 00:22:24;;;;;;;2.30;2.10;;;17.20;58.00;;;;;;5056271;28;20205;-73
2022/11/08 00:24:51;;;;;;;2.38;2.10;;;17.20;57.80;;;;;;5056339;28;20194;-72
2022/11/08 00:27:19;;;;;;;2.63;2.42;;;17.10;57.90;;;;;;5073966;28;20211;-73
2022/11/08 00:29:46;;;;;;;3.47;2.17;;;17.20;58.10;;;;;;5056042;28;20310;-72
2022/11/08 00:32:14;;;;;;;2.55;2.35;;;17.20;57.80;;;;;;5056067;28;20195;-72
2022/11/08 00:34:43;;;;;;;3.47;2.60;;;17.10;57.90;;;;;;5056049;28;20205;-73
2022/11/08 00:37:10;;;;;;;2.40;2.20;;;17.10;58.00;;;;;;5055992;28;20214;-72
2022/11/08 00:39:37;;;;;;;3.03;2.50;;;17.10;58.00;;;;;;5056194;28;20199;-72
2022/11/08 00:42:04;;;;;;;2.70;2.50;;;17.10;58.20;;;;;;5055896;28;20194;-72
2022/11/08 00:44:31;;;;;;;3.25;2.53;;;17.10;58.10;;;;;;5056696;28;20252;-72
2022/11/08 00:46:58;;;;;;;2.63;2.42;;;17.10;58.00;;;;;;5055965;28;20218;-72
2022/11/08 00:49:26;;;;;;;2.88;2.67;;;17.00;58.00;;;;;;5056094;28;20202;-72
2022/11/08 00:51:55;;;;;;;2.70;2.50;;;17.00;58.00;;;;;;5055878;28;20699;-72
2022/11/08 00:54:22;;;;;;;2.90;2.60;;;17.10;58.30;;;;;;5055953;28;20198;-73
2022/11/08 00:56:49;;;;;;;4.10;2.72;;;17.00;58.20;;;;;;5056556;28;20268;-73
2022/11/08 00:59:17;;;;;;;3.17;2.60;;;17.00;58.20;;;;;;5056243;28;20199;-73
2022/11/08 01:01:44;;;;;;;3.10;2.80;;;17.00;58.20;;;;;;5056609;28;20199;-73
2022/11/08 01:04:13;;;;;;;2.50;2.30;;;16.90;58.20;;;;;;5056295;28;20649;-73
2022/11/08 01:06:40;;;;;;;3.03;2.50;;;17.00;58.40;;;;;;5055967;28;20225;-73
2022/11/08 01:09:09;;;;;;;2.67;2.47;;;16.90;58.10;;;;;;5056893;28;20223;-73
2022/11/08 01:11:35;;;;;;;5.43;2.45;;;16.90;58.20;;;;;;5057094;28;20214;-73
2022/11/08 01:14:02;;;;;;;2.60;2.40;;;16.90;58.30;;;;;;5074741;28;20205;-73
2022/11/08 01:16:30;;;;;;;2.72;2.53;;;16.90;58.20;;;;;;5056463;28;20224;-73
2022/11/08 01:18:57;;;;;;;2.65;2.45;;;16.90;58.30;;;;;;5056081;28;20198;-73
2022/11/08 01:21:24;;;;;;;4.38;2.70;;;16.90;58.10;;;;;;5055997;28;20205;-72
2022/11/08 01:23:53;;;;;;;2.72;2.53;;;16.80;58.30;;;;;;5056643;28;20202;-72
2022/11/08 01:26:22;;;;;;;3.03;2.60;;;16.80;58.10;;;;;;5055593;28;20252;-72
2022/11/08 01:28:49;;;;;;;2.70;2.33;;;16.80;58.40;;;;;;5055873;28;20206;-73
2022/11/08 01:31:17;;;;;;;2.83;2.40;;;16.80;58.40;;;;;;5055636;28;20264;-72
2022/11/08 01:33:44;;;;;;;3.15;2.40;;;16.80;58.20;;;;;;5055603;28;20207;-73
2022/11/08 01:36:13;;;;;;;2.72;2.53;;;16.80;58.60;;;;;;5055487;28;20195;-72
2022/11/08 01:38:40;;;;;;;2.80;2.55;;;16.80;58.40;;;;;;5073401;28;20198;-72
2022/11/08 01:41:09;;;;;;;2.67;2.35;;;16.80;58.30;;;;;;5073555;28;20186;-72
2022/11/08 01:43:41;;;;;;;2.30;2.10;;;16.80;58.50;;;;;;5073105;28;20688;-72
2022/11/08 01:46:29;;;;;;;3.00;2.70;;;16.70;58.40;;;;;;5055139;28;20203;-73
2022/11/08 01:49:19;;;;;;;2.88;2.40;;;16.80;58.40;;;;;;5055308;28;20183;-72
2022/11/08 01:51:49;;;;;;;2.67;2.40;;;16.70;58.50;;;;;;5073336;28;20195;-72
2022/11/08 01:54:17;;;;;;;2.63;2.42;;;16.70;58.50;;;;;;5055438;28;20194;-73
2022/11/08 01:56:44;;;;;;;4.95;2.60;;;16.70;58.50;;;;;;5055149;28;20708;-72
2022/11/08 01:59:13;;;;;;;3.15;2.40;;;16.70;58.40;;;;;;5055965;28;20216;-72
2022/11/08 02:01:40;;;;;;;2.88;2.50;;;16.70;58.50;;;;;;5055249;28;20195;-72
2022/11/08 02:04:07;;;;;;;2.67;2.47;;;16.70;58.50;;;;;;5073328;28;20267;-72
2022/11/08 02:06:35;;;;;;;3.17;2.60;;;16.70;58.50;;;;;;5056253;28;20229;-74
2022/11/08 02:09:03;;;;;;;2.50;2.30;;;16.70;58.30;;;;;;5058919;28;20206;-72
2022/11/08 02:11:31;;;;;;;2.70;2.50;;;16.70;58.50;;;;;;5058437;28;20234;-72
2022/11/08 02:13:58;;;;;;;4.20;2.60;;;16.70;58.30;;;;;;5058774;28;20225;-73
2022/11/08 02:16:27;;;;;;;3.60;2.88;;;16.60;58.40;;;;;;5058602;28;20245;-73
2022/11/08 02:18:54;;;;;;;2.80;2.50;;;16.60;58.20;;;;;;5058496;28;20203;-72
2022/11/08 02:21:24;;;;;;;3.42;2.67;;;16.60;58.50;;;;;;5058965;28;20241;-73
2022/11/08 02:23:53;;;;;;;2.40;2.20;;;16.60;58.40;;;;;;5076774;28;20198;-73
2022/11/08 02:26:22;;;;;;;2.72;2.35;;;16.60;58.40;;;;;;5059026;28;20202;-72
2022/11/08 02:28:49;;;;;;;3.05;2.67;;;16.60;58.40;;;;;;5059920;28;20198;-72
2022/11/08 02:31:19;;;;;;;2.67;2.47;;;16.60;58.80;;;;;;5058721;28;20676;-72
2022/11/08 02:33:47;;;;;;;2.78;2.58;;;16.50;58.60;;;;;;5059277;28;20233;-72
2022/11/08 02:36:15;;;;;;;2.60;2.40;;;16.60;58.30;;;;;;5076472;28;20198;-72
2022/11/08 02:38:44;;;;;;;3.42;2.70;;;16.50;58.40;;;;;;5058175;28;20198;-72
2022/11/08 02:41:13;;;;;;;3.08;2.78;;;16.60;58.40;;;;;;5057903;28;20199;-72
2022/11/08 02:43:40;;;;;;;3.42;2.90;;;16.50;58.40;;;;;;5057771;28;20195;-72
2022/11/08 02:46:07;;;;;;;2.95;2.70;;;16.50;58.50;;;;;;5057936;28;20199;-72
2022/11/08 02:48:34;;;;;;;2.92;2.72;;;16.50;58.40;;;;;;5075711;28;20190;-72
2022/11/08 02:51:02;;;;;;;2.88;2.67;;;16.50;58.50;;;;;;5057925;28;20214;-72
2022/11/08 02:53:28;;;;;;;3.72;2.60;;;16.50;58.70;;;;;;5058054;28;20560;-72
2022/11/08 02:55:55;;;;;;;3.20;2.90;;;16.50;58.30;;;;;;5058000;28;20202;-72
2022/11/08 02:58:26;;;;;;;3.03;2.60;;;16.50;58.70;;;;;;5057623;28;20215;-72
2022/11/08 03:00:53;;;;;;;2.83;2.63;;;16.50;58.40;;;;;;5057433;28;20392;-72
2022/11/08 03:03:21;;;;;;;3.17;2.55;;;16.50;58.60;;;;;;5041472;28;20201;-72
2022/11/08 03:05:47;;;;;;;2.95;2.65;;;16.50;58.60;;;;;;5057215;28;20217;-72
2022/11/08 03:08:14;;;;;;;3.00;2.75;;;16.50;58.40;;;;;;5057332;28;20233;-73
2022/11/08 03:10:41;;;;;;;2.72;2.53;;;16.50;58.40;;;;;;5056821;28;20213;-72
2022/11/08 03:13:08;;;;;;;2.97;2.75;;;16.40;58.40;;;;;;5056977;28;20234;-72
2022/11/08 03:15:36;;;;;;;3.00;2.80;;;16.40;58.50;;;;;;5057720;28;20252;-72
2022/11/08 03:18:03;;;;;;;3.17;2.70;;;16.40;58.60;;;;;;5056827;28;20219;-72
2022/11/08 03:20:30;;;;;;;2.88;2.67;;;16.40;58.40;;;;;;5057148;28;20202;-72
2022/11/08 03:22:58;;;;;;;3.30;2.80;;;16.40;58.40;;;;;;5057064;28;20191;-72
2022/11/08 03:25:25;;;;;;;3.67;2.90;;;16.40;58.40;;;;;;5056834;28;20194;-72
2022/11/08 03:27:52;;;;;;;2.63;2.42;;;16.40;58.60;;;;;;5056661;28;20222;-72
2022/11/08 03:30:19;;;;;;;2.65;2.45;;;16.40;58.30;;;;;;5056793;28;20195;-72
2022/11/08 03:32:48;;;;;;;2.90;2.60;;;16.40;58.50;;;;;;5056475;28;20210;-72
2022/11/08 03:35:16;;;;;;;2.88;2.58;;;16.30;58.60;;;;;;5056650;28;20199;-74
2022/11/08 03:37:49;;;;;;;2.58;2.38;;;16.30;58.60;;;;;;5056586;28;20219;-72
2022/11/08 03:40:16;;;;;;;3.00;2.58;;;16.30;58.40;;;;;;5057271;28;20187;-72
2022/11/08 03:42:44;;;;;;;3.15;2.85;;;16.30;58.60;;;;;;5056496;28;20659;-72
2022/11/08 03:45:11;;;;;;;2.90;2.70;;;16.30;58.50;;;;;;5057016;28;20194;-72
2022/11/08 03:47:38;;;;;;;2.90;2.70;;;16.30;58.60;;;;;;5056804;28;20218;-73
2022/11/08 03:50:08;;;;;;;3.10;2.80;;;16.30;58.60;;;;;;5056427;28;20202;-73
2022/11/08 03:52:40;;;;;;;2.50;2.30;;;16.30;58.20;;;;;;5056423;28;20301;-73
2022/11/08 03:55:08;;;;;;;2.70;2.50;;;16.30;58.70;;;;;;5056889;28;20198;-73
2022/11/08 03:57:35;;;;;;;3.03;2.80;;;16.30;58.50;;;;;;5056375;28;20712;-72
2022/11/08 04:00:04;;;;;;;3.28;2.88;;;16.20;58.40;;;;;;5055930;28;20206;-72
2022/11/08 04:02:38;;;;;;;2.78;2.58;;;16.20;58.40;;;;;;5073933;28;20259;-73
2022/11/08 04:05:07;;;;;;;2.90;2.70;;;16.20;58.50;;;;;;5056401;28;20294;-72
2022/11/08 04:07:35;;;;;;;3.10;2.80;;;16.20;58.20;;;;;;5056000;28;20221;-73
2022/11/08 04:10:04;;;;;;;3.50;2.70;;;16.20;58.40;;;;;;5056513;28;20203;-73
2022/11/08 04:15:17;;;;;;;2.97;2.70;;;16.20;58.30;;;;;;5056056;28;20186;-72
2022/11/08 04:23:16;;;;;;;3.42;3.13;;;16.10;58.00;;;;;;5073926;28;20245;-72
2022/11/08 04:25:44;;;;;;;3.05;2.85;;;16.10;58.30;;;;;;5055804;28;20206;-72
2022/11/08 04:28:11;;;;;;;2.92;2.72;;;16.20;58.50;;;;;;5055565;28;20214;-72
2022/11/08 04:30:38;;;;;;;3.92;3.13;;;16.10;58.20;;;;;;5055469;28;20294;-72
2022/11/08 04:33:05;;;;;;;3.40;3.10;;;16.10;58.00;;;;;;5055565;28;20214;-72
2022/11/08 04:35:34;;;;;;;3.17;2.92;;;16.10;57.80;;;;;;5055895;28;20198;-72
2022/11/08 04:38:01;;;;;;;3.05;2.85;;;16.10;58.60;;;;;;5055440;28;20607;-72
2022/11/08 04:40:30;;;;;;;3.38;2.92;;;16.10;58.50;;;;;;5056430;28;20198;-72
2022/11/08 04:42:57;;;;;;;2.90;2.70;;;16.10;58.60;;;;;;5055325;28;20193;-72
2022/11/08 04:45:24;;;;;;;3.10;2.88;;;16.10;58.70;;;;;;5055373;28;20281;-72
2022/11/08 04:47:51;;;;;;;3.47;3.17;;;16.10;58.60;;;;;;5073570;28;20276;-73
2022/11/08 04:50:20;;;;;;;3.42;3.13;;;16.10;58.60;;;;;;5056033;28;20221;-73
2022/11/08 04:52:52;;;;;;;3.00;2.80;;;16.10;58.50;;;;;;5074290;28;20237;-73
2022/11/08 04:55:20;;;;;;;3.13;2.92;;;16.10;58.70;;;;;;5055890;28;20278;-73
2022/11/08 04:57:47;;;;;;;3.95;3.10;;;16.10;58.60;;;;;;5055496;28;20225;-72
2022/11/08 05:00:15;;;;;;;3.40;3.08;;;16.10;58.60;;;;;;5055650;28;20210;-72
2022/11/08 05:02:43;;;;;;;2.92;2.63;;;16.10;58.70;;;;;;5055468;28;20183;-72
2022/11/08 05:05:10;;;;;;;2.95;2.65;;;16.10;58.70;;;;;;5073618;28;20193;-72
2022/11/08 05:07:37;;;;;;;2.60;2.30;;;16.20;58.50;;;;;;5055970;28;20229;-72
2022/11/08 05:10:06;;;;;;;2.92;2.67;;;16.20;58.40;;;;;;5073450;28;20191;-72
2022/11/08 05:12:33;;;;;;;2.90;2.67;;;16.10;58.40;;;;;;5055865;28;20215;-72
2022/11/08 05:15:01;;;;;;;2.67;2.47;;;16.20;58.40;;;;;;5055275;28;20209;-72
2022/11/08 05:17:28;;;;;;;2.75;2.40;;;16.20;58.30;;;;;;5055456;28;20711;-72
2022/11/08 05:25:25;;;;;;;3.00;2.75;;;16.20;58.10;;;;;;5055561;28;20187;-72
2022/11/08 05:27:52;;;;;;;3.10;2.60;;;16.30;58.20;;;;;;5055064;28;20223;-72
2022/11/08 05:30:19;;;;;;;2.60;2.40;;;16.20;57.90;;;;;;5055183;28;20205;-72
2022/11/08 05:32:46;;;;;;;2.80;2.60;;;16.30;58.00;;;;;;5055094;28;20724;-72
2022/11/08 05:35:13;;;;;;;2.92;2.67;;;16.30;57.60;;;;;;5055419;28;20195;-72
2022/11/08 05:37:41;;;;;;;2.60;2.40;;;16.30;57.90;;;;;;5055134;28;20611;-72
2022/11/08 05:40:10;;;;;;;2.42;2.30;;;16.30;57.80;;;;;;5055312;28;20203;-72
2022/11/08 05:42:38;;;;;;;2.72;2.53;;;16.30;57.40;;;;;;5076172;28;20273;-72
2022/11/08 05:45:07;;;;;;;2.50;2.30;;;16.30;57.50;;;;;;5059087;28;20213;-72
2022/11/08 05:47:34;;;;;;;2.65;2.40;;;16.40;57.60;;;;;;5076784;28;20206;-72
2022/11/08 05:50:01;;;;;;;2.88;2.67;;;16.40;57.60;;;;;;5058794;28;20195;-72
2022/11/08 05:52:29;;;;;;;2.72;2.30;;;16.30;57.40;;;;;;5076542;28;20207;-72
2022/11/08 05:54:56;;;;;;;2.70;2.50;;;16.40;57.70;;;;;;5058669;28;20248;-72
2022/11/08 05:57:23;;;;;;;2.80;2.60;;;16.40;57.40;;;;;;5058868;28;20215;-72
2022/11/08 05:59:51;;;;;;;2.80;2.60;;;16.40;57.40;;;;;;5058719;28;20202;-72
2022/11/08 06:02:18;;;;;;;2.60;2.40;;;16.40;57.50;;;;;;5059057;28;20186;-72
2022/11/08 06:04:45;;;;;;;3.47;2.97;;;16.40;57.30;;;;;;5058961;28;20212;-72
2022/11/08 06:07:12;;;;;;;2.70;2.50;;;16.40;57.20;;;;;;5058971;28;20268;-72
2022/11/08 06:09:40;;;;;;;3.78;2.83;;;16.30;56.90;;;;;;5058812;28;20672;-72
2022/11/08 06:15:00;;;;;;;2.75;2.50;;;16.40;57.30;;;;;;5016027;28;20686;-70
2022/11/08 06:17:27;;;;;;;3.25;2.60;;;16.50;57.80;;;;;;5016278;28;20779;-70
2022/11/08 06:19:54;;;;;;;2.95;2.55;;;16.40;57.50;;;;;;5000048;28;20207;-70
2022/11/08 06:22:21;;;;;;;2.80;2.60;;;16.50;57.70;;;;;;5000053;28;20656;-70
2022/11/08 06:24:48;;;;;;;2.58;2.38;;;16.40;57.40;;;;;;5016299;28;20200;-70
2022/11/08 06:27:15;;;;;;;3.33;3.03;;;16.40;57.30;;;;;;4999942;28;20563;-70
2022/11/08 06:29:42;;;;;;;2.70;2.50;;;16.50;57.50;;;;;;5000338;28;20223;-70
2022/11/08 06:32:11;;;;;;;2.78;2.58;;;16.50;57.30;;;;;;5000246;28;20224;-70
2022/11/08 06:34:38;;;;;;;2.78;2.50;;;16.50;57.10;;;;;;5016465;28;20204;-71
2022/11/08 06:37:05;;;;;;;2.63;2.42;;;16.50;57.10;;;;;;4999946;28;20266;-70
2022/11/08 06:39:32;;;;;;;2.88;2.67;;;16.50;57.10;;;;;;5016595;28;20208;-70
2022/11/08 06:41:59;;;;;;;2.85;2.65;;;16.50;57.40;;;;;;4999170;28;20219;-70
2022/11/08 06:44:27;;;;;;;2.60;2.40;;;16.50;57.30;;;;;;4999300;28;20266;-70
2022/11/08 06:46:55;;;;;;;2.78;2.58;;;16.50;57.00;;;;;;4999002;28;20217;-70
2022/11/08 06:49:24;;;;;;;2.83;2.55;;;16.60;57.00;;;;;;5015888;28;20268;-70
2022/11/08 06:51:53;;;;;;;2.83;2.63;;;16.60;56.60;;;;;;5018332;28;20193;-70
2022/11/08 06:54:20;;;;;;;2.90;2.60;;;16.60;56.50;;;;;;5012799;28;20235;-70
2022/11/08 06:56:47;;;;;;;2.90;2.58;;;16.60;55.80;;;;;;5015784;28;20707;-70
2022/11/08 06:59:14;;;;;;;4.10;2.95;;;16.60;55.90;;;;;;5015486;28;20267;-69
2022/11/08 07:01:41;;;;;;;2.97;2.70;;;16.70;55.60;;;;;;4998961;28;20209;-69
2022/11/08 07:04:08;;;;;;;3.13;2.83;;;16.70;55.60;;;;;;4998670;28;20200;-69
2022/11/08 07:06:37;;;;;;;3.08;2.78;;;16.70;55.40;;;;;;4998705;28;20275;-70
2022/11/08 07:09:06;;;;;;;2.88;2.67;;;16.70;55.40;;;;;;4998921;28;20204;-70
2022/11/08 07:11:33;;;;;;;3.03;2.72;;;16.80;55.10;;;;;;5015726;28;20200;-70
2022/11/08 07:14:00;;;;;;;2.90;2.70;;;16.80;55.20;;;;;;4998737;28;20225;-70
2022/11/08 07:16:28;;;;;;;2.95;2.60;;;16.80;55.10;;;;;;4999711;28;20216;-70
2022/11/08 07:18:55;;;;;;;3.00;2.70;;;16.80;55.20;;;;;;4998841;28;20193;-70
2022/11/08 07:21:22;;;;;;;2.63;2.42;;;16.90;55.20;;;;;;5014944;28;20200;-70
2022/11/08 07:23:50;;;;;;;3.35;2.63;;;16.90;55.00;;;;;;5015471;28;20193;-70
2022/11/08 07:26:17;;;;;;;4.70;2.97;;;16.90;55.00;;;;;;4999030;28;20203;-70
2022/11/08 07:28:44;;;;;;;3.20;2.70;;;16.90;55.10;;;;;;5014759;28;20207;-70
2022/11/08 07:31:11;;;;;;;2.80;2.60;;;17.00;55.10;;;;;;4999055;28;20297;-70
2022/11/08 07:33:38;;;;;;;3.00;2.70;;;17.10;54.90;;;;;;5014522;28;20255;-70
2022/11/08 07:36:06;;;;;;;3.33;2.88;;;17.10;54.90;;;;;;4998354;28;20617;-70
2022/11/08 07:38:33;;;;;;;3.10;2.80;;;17.10;54.90;;;;;;5017057;28;20207;-70
2022/11/08 07:41:02;;;;;;;2.70;2.50;;;17.10;54.80;;;;;;5012740;28;20201;-70
2022/11/08 07:43:29;;;;;;;3.08;2.80;;;17.20;55.00;;;;;;5037410;28;20177;-71
2022/11/08 07:46:00;;;;;;;2.65;2.45;;;17.20;54.90;;;;;;5016177;28;20236;-71
2022/11/08 07:48:28;;;;;;;3.40;2.63;;;17.20;54.50;;;;;;4998452;28;20597;-71
2022/11/08 07:50:55;;;;;;;3.30;3.00;;;17.30;54.80;;;;;;5015821;28;20651;-71
2022/11/08 07:53:22;;;;;;;3.10;2.80;;;17.30;54.70;;;;;;4997906;28;20213;-69
2022/11/08 07:55:49;;;;;;;3.33;3.05;;;17.30;54.50;;;;;;4997579;28;20207;-70
2022/11/08 07:58:18;;;;;;;3.65;3.13;;;17.30;54.50;;;;;;4997369;28;20311;-70
2022/11/08 08:00:48;;;;;;;3.53;3.22;;;17.30;54.50;;;;;;5015098;28;20602;-71
2022/11/08 08:03:15;;;;;;;3.08;2.85;;;17.30;54.40;;;;;;5013419;28;20192;-71
2022/11/08 08:05:43;;;;;;;3.75;3.35;;;17.40;54.60;;;;;;4996785;28;20209;-71
2022/11/08 08:08:11;;;;;;;3.80;3.38;;;17.40;54.50;;;;;;4997140;28;20299;-71
2022/11/08 08:10:38;;;;;;;5.03;3.10;;;17.40;54.50;;;;;;4996954;28;20196;-71
2022/11/08 08:13:06;;;;;;;3.40;3.10;;;17.40;54.70;;;;;;4996713;28;20225;-71
2022/11/08 08:15:34;;;;;;;3.40;3.10;;;17.50;54.30;;;;;;4997066;28;20675;-71
2022/11/08 08:18:02;;;;;;;3.67;3.00;;;17.50;54.20;;;;;;4996717;28;20327;-71
2022/11/08 08:20:29;;;;;;;3.42;2.88;;;17.50;54.30;;;;;;4997253;28;20233;-71
2022/11/08 08:22:57;;;;;;;3.33;3.03;;;17.50;54.30;;;;;;4996594;28;20292;-71
2022/11/08 08:25:24;;;;;;;3.20;3.00;;;17.60;55.20;;;;;;5014441;28;20193;-71
2022/11/08 08:27:52;;;;;;;4.07;3.28;;;17.60;54.30;;;;;;4996478;28;20603;-71
2022/11/08 08:30:19;;;;;;;4.07;3.38;;;17.60;54.50;;;;;;5012974;28;20201;-71
2022/11/08 08:32:48;;;;;;;3.72;3.33;;;17.70;54.40;;;;;;4996330;28;20267;-71
2022/11/08 08:35:15;;;;;;;4.15;3.25;;;17.70;54.50;;;;;;4996517;28;20291;-71
2022/11/08 08:37:42;;;;;;;3.45;3.13;;;17.70;54.40;;;;;;5012861;28;20212;-71
2022/11/08 08:40:10;;;;;;;4.07;3.20;;;17.70;54.30;;;;;;4996690;28;20205;-71
2022/11/08 08:42:37;;;;;;;3.38;3.08;;;17.80;54.40;;;;;;4996308;28;20254;-71
2022/11/08 08:45:07;;;;;;;5.15;3.42;;;17.80;54.40;;;;;;5014086;28;20189;-70
2022/11/08 08:47:34;;;;;;;3.45;3.15;;;17.80;54.20;;;;;;4996442;28;20267;-70
2022/11/08 08:50:03;;;;;;;3.55;3.20;;;17.90;54.30;;;;;;4996188;28;20200;-70
2022/11/08 08:52:29;;;;;;;3.10;2.90;;;17.90;54.10;;;;;;5012543;28;20209;-71
2022/11/08 08:54:57;;;;;;;3.10;2.80;;;17.90;54.20;;;;;;4997896;28;20200;-70
2022/11/08 08:57:24;;;;;;;3.45;2.85;;;18.00;53.90;;;;;;4998852;28;20217;-70
2022/11/08 08:59:50;;;;;;;3.10;2.80;;;18.10;53.80;;;;;;4998592;28;20204;-70
2022/11/08 09:02:18;;;;;;;3.00;2.70;;;18.10;53.80;;;;;;4998794;28;20216;-70
2022/11/08 09:04:45;;;;;;;3.25;3.00;;;18.20;54.00;;;;;;4999204;28;20231;-70
2022/11/08 09:07:14;;;;;;;2.90;2.70;;;18.20;53.80;;;;;;5015723;28;20240;-70
2022/11/08 09:09:41;;;;;;;3.63;2.70;;;18.30;53.90;;;;;;4998815;28;20568;-70
2022/11/08 09:12:08;;;;;;;3.38;3.05;;;18.30;53.80;;;;;;5014667;28;20197;-70
2022/11/08 09:14:35;;;;;;;3.85;2.83;;;18.30;53.70;;;;;;4997940;28;20230;-70
2022/11/08 09:17:03;;;;;;;3.22;2.60;;;18.40;53.60;;;;;;5002220;28;20224;-70
2022/11/08 09:19:29;;;;;;;2.80;2.60;;;18.40;53.30;;;;;;5017006;28;20197;-70
2022/11/08 09:21:57;;;;;;;3.20;2.90;;;18.40;54.10;;;;;;5000455;28;20258;-70
2022/11/08 09:24:25;;;;;;;2.70;2.50;;;18.40;53.30;;;;;;5018039;28;20191;-70
2022/11/08 09:26:52;;;;;;;3.20;2.90;;;18.40;53.80;;;;;;5002059;28;20717;-70
2022/11/08 09:29:19;;;;;;;3.40;2.60;;;18.50;54.00;;;;;;5000364;28;20207;-70
2022/11/08 09:31:46;;;;;;;3.10;2.90;;;18.50;53.80;;;;;;5017277;28;20188;-71
2022/11/08 09:34:13;;;;;;;3.25;2.90;;;18.60;53.50;;;;;;5002039;28;20224;-71
2022/11/08 09:36:41;;;;;;;3.55;3.08;;;18.60;53.50;;;;;;5001134;28;20220;-71
2022/11/08 09:39:08;;;;;;;3.20;2.90;;;18.60;53.50;;;;;;5002271;28;20266;-71
2022/11/08 09:42:02;;;;;;;3.67;3.10;;;18.70;53.50;;;;;;5000811;28;20201;-71
2022/11/08 09:44:45;;;;;;;3.00;2.80;;;18.80;53.30;;;;;;5000061;28;20196;-71
2022/11/08 09:47:14;;;;;;;3.95;2.97;;;18.80;53.20;;;;;;4999938;28;20270;-71
2022/11/08 09:49:42;;;;;;;3.50;2.70;;;18.90;53.30;;;;;;5017401;28;20193;-71
2022/11/08 09:52:11;;;;;;;3.35;2.95;;;18.90;53.20;;;;;;5015902;28;20223;-71
2022/11/08 09:54:41;;;;;;;3.97;2.90;;;19.00;53.00;;;;;;5017179;28;20205;-71
2022/11/08 09:57:12;;;;;;;3.53;3.22;;;19.00;53.10;;;;;;5016093;28;20224;-71
2022/11/08 09:59:42;;;;;;;3.00;2.80;;;19.00;53.10;;;;;;4999876;28;20193;-71
2022/11/08 10:02:15;;;;;;;2.97;2.67;;;19.00;52.90;;;;;;4999979;28;20284;-71
2022/11/08 10:04:42;;;;;;;2.80;2.60;;;19.10;53.00;;;;;;5000055;28;20189;-71
2022/11/08 10:07:16;;;;;;;3.15;2.70;;;19.10;52.90;;;;;;5016087;28;20216;-71
2022/11/08 10:09:53;;;;;;;3.28;2.70;;;19.20;52.80;;;;;;5000560;28;20200;-71
2022/11/08 10:12:25;;;;;;;2.45;2.25;;;19.20;52.90;;;;;;5000735;28;20192;-71
2022/11/08 10:15:00;;;;;;;2.72;2.53;;;19.20;52.90;;;;;;5017421;28;20702;-71
2022/11/08 10:18:03;;;;;;;2.78;2.55;;;19.20;52.80;;;;;;5017750;28;20224;-71
2022/11/08 10:20:36;;;;;;;2.83;2.50;;;19.20;52.90;;;;;;4996107;28;20274;-71
2022/11/08 10:23:10;;;;;;;2.80;2.50;;;19.30;52.90;;;;;;5001645;28;20239;-71
2022/11/08 10:25:41;;;;;;;3.17;2.70;;;19.30;52.70;;;;;;5000647;28;20199;-70
2022/11/08 10:28:11;;;;;;;2.75;2.55;;;19.30;52.70;;;;;;4999257;28;20216;-70
2022/11/08 10:30:40;;;;;;;3.60;2.70;;;19.30;52.80;;;;;;5016264;28;20679;-70
2022/11/08 10:33:28;;;;;;;3.30;2.75;;;19.30;52.90;;;;;;5017888;28;20208;-70
2022/11/08 10:35:57;;;;;;;3.65;3.08;;;19.30;52.90;;;;;;4999616;28;20208;-70
2022/11/08 10:38:29;;;;;;;2.78;2.40;;;19.30;52.80;;;;;;5017795;28;20223;-70
2022/11/08 10:40:59;;;;;;;2.90;2.60;;;19.30;52.80;;;;;;5000736;28;20201;-70
2022/11/08 10:43:31;;;;;;;3.13;2.60;;;19.40;52.70;;;;;;5000150;28;20197;-70
2022/11/08 10:46:00;;;;;;;2.30;2.10;;;19.40;52.70;;;;;;5016706;28;20254;-70
2022/11/08 10:48:26;;;;;;;2.75;2.55;;;19.40;53.20;;;;;;4999588;28;20583;-71
2022/11/08 10:50:54;;;;;;;3.00;2.70;;;19.40;52.70;;;;;;5016905;28;20363;-71
2022/11/08 10:53:25;;;;;;;2.80;2.60;;;19.40;52.60;;;;;;4999704;28;20209;-70
2022/11/08 10:55:53;;;;;;;2.85;2.60;;;19.40;52.60;;;;;;5016548;28;20264;-70
2022/11/08 10:58:37;;;;;;;2.90;2.70;;;19.40;52.60;;;;;;4998752;28;20212;-70
2022/11/08 11:01:06;;;;;;;2.70;2.22;;;19.50;52.60;;;;;;5014763;28;20220;-70
2022/11/08 11:03:34;;;;;;;3.47;2.55;;;19.50;52.70;;;;;;4998574;28;20200;-69
2022/11/08 11:06:02;;;;;;;3.08;2.72;;;19.50;52.50;;;;;;4998409;28;20283;-71
2022/11/08 11:08:29;;;;;;;2.83;2.63;;;19.50;52.50;;;;;;5014644;28;20197;-71
2022/11/08 11:10:56;;;;;;;2.50;2.30;;;19.50;52.50;;;;;;4998153;28;20211;-71
2022/11/08 11:13:25;;;;;;;2.70;2.45;;;19.60;52.50;;;;;;4998868;28;20315;-71
2022/11/08 11:15:58;;;;;;;2.60;2.40;;;19.60;52.40;;;;;;4998294;28;20200;-71
2022/11/08 11:18:28;;;;;;;3.17;2.58;;;19.60;52.40;;;;;;4998132;28;20232;-71
2022/11/08 11:21:07;;;;;;;3.00;2.70;;;19.60;52.40;;;;;;4998121;28;20204;-70
2022/11/08 11:23:35;;;;;;;2.83;2.47;;;19.60;52.30;;;;;;4997864;28;20200;-70
2022/11/08 11:26:03;;;;;;;2.58;2.38;;;19.60;52.40;;;;;;4997875;28;20663;-70
2022/11/08 11:28:30;;;;;;;2.60;2.40;;;19.70;52.40;;;;;;4998021;28;20201;-70
2022/11/08 11:31:03;;;;;;;2.40;2.20;;;19.70;52.40;;;;;;4998005;28;20621;-70
2022/11/08 11:33:32;;;;;;;2.67;2.47;;;19.70;52.40;;;;;;4997682;28;20216;-71
2022/11/08 11:36:03;;;;;;;3.65;2.80;;;19.70;52.20;;;;;;4997823;28;20296;-71
2022/11/08 11:38:35;;;;;;;3.08;2.78;;;19.70;52.40;;;;;;4998151;28;20185;-71
2022/11/08 11:41:04;;;;;;;2.58;2.38;;;19.60;52.40;;;;;;4998777;28;20193;-70
2022/11/08 11:43:34;;;;;;;2.60;2.33;;;19.60;52.50;;;;;;4998720;28;20243;-70
2022/11/08 11:46:05;;;;;;;2.40;2.20;;;19.70;52.40;;;;;;4998031;28;20588;-70
2022/11/08 11:48:33;;;;;;;3.60;2.20;;;19.70;52.20;;;;;;4998801;28;20205;-70
2022/11/08 11:51:01;;;;;;;3.05;2.53;;;19.70;52.20;;;;;;4997826;28;20204;-70
2022/11/08 11:53:31;;;;;;;2.47;2.25;;;19.70;52.20;;;;;;5014377;28;20217;-70
2022/11/08 11:56:31;;;;;;;2.72;2.53;;;19.70;52.30;;;;;;4998979;28;20235;-70
2022/11/08 11:59:20;;;;;;;3.08;2.65;;;19.70;52.30;;;;;;5012407;28;20259;-70
2022/11/08 12:02:03;;;;;;;2.80;2.50;;;19.80;52.30;;;;;;4998140;28;20189;-70
2022/11/08 12:04:53;;;;;;;3.13;2.72;;;19.80;52.30;;;;;;4997903;28;20193;-70
2022/11/08 12:07:23;;;;;;;3.08;2.72;;;19.80;52.50;;;;;;5014211;28;20687;-70
2022/11/08 12:10:00;;;;;;;2.78;2.50;;;19.80;52.40;;;;;;4997828;28;20196;-70
2022/11/08 12:15:23;;;;;;;2.97;2.78;;;19.80;52.30;;;;;;4995461;28;20264;-71
2022/11/08 12:18:17;;;;;;;3.42;2.70;;;19.90;52.40;;;;;;4994369;28;20623;-70
2022/11/08 12:20:52;;;;;;;2.95;2.63;;;19.90;52.50;;;;;;4994162;28;20193;-70
2022/11/08 12:23:37;;;;;;;3.25;2.80;;;19.80;52.40;;;;;;4977849;28;20189;-70
2022/11/08 12:26:09;;;;;;;3.42;2.78;;;19.90;52.40;;;;;;4977678;28;20276;-70
2022/11/08 12:28:46;;;;;;;3.55;2.45;;;19.90;52.40;;;;;;4978235;28;20201;-71
2022/11/08 12:31:20;;;;;;;3.38;2.50;;;19.90;52.40;;;;;;4977438;28;20299;-70
2022/11/08 12:33:53;;;;;;;2.88;2.40;;;19.90;52.30;;;;;;4978617;28;20213;-70
2022/11/08 12:36:22;;;;;;;2.90;2.70;;;20.00;52.50;;;;;;4977513;28;20675;-71
2022/11/08 12:38:58;;;;;;;2.33;2.13;;;20.00;52.50;;;;;;4993539;28;20237;-71
2022/11/08 12:41:29;;;;;;;2.85;2.60;;;20.00;52.40;;;;;;4993921;28;20193;-70
2022/11/08 12:44:45;;;;;;;2.47;2.28;;;20.00;52.30;;;;;;4995158;28;20178;-70
2022/11/08 12:47:17;;;;;;;2.75;2.55;;;20.10;52.40;;;;;;4912853;29;20323;-70
2022/11/08 12:49:51;;;;;;;2.53;2.33;;;20.20;52.40;;;;;;4972888;28;20205;-70
2022/11/08 12:52:23;;;;;;;2.60;2.40;;;20.20;52.40;;;;;;4995859;28;20184;-70
2022/11/08 12:54:51;;;;;;;2.70;2.38;;;20.20;52.40;;;;;;4977620;28;20217;-70
2022/11/08 12:57:20;;;;;;;2.65;2.30;;;20.20;52.40;;;;;;4978286;28;20228;-70
2022/11/08 12:59:48;;;;;;;2.58;2.20;;;20.20;52.40;;;;;;4982698;28;20593;-70
2022/11/08 13:02:18;;;;;;;3.15;2.63;;;20.20;52.50;;;;;;4995533;28;20647;-70
2022/11/08 13:04:56;;;;;;;2.30;2.10;;;20.20;52.50;;;;;;4977491;28;20193;-70
2022/11/08 13:07:29;;;;;;;2.75;2.28;;;20.20;52.40;;;;;;4995182;28;20221;-70
2022/11/08 13:09:58;;;;;;;2.00;1.90;;;20.20;52.40;;;;;;4993897;28;20193;-70
2022/11/08 13:12:40;;;;;;;2.65;2.45;;;20.10;52.60;;;;;;4977492;28;20296;-70
2022/11/08 13:15:16;;;;;;;2.97;2.65;;;20.20;52.70;;;;;;4993693;28;20247;-70
2022/11/08 13:18:04;;;;;;;4.35;2.50;;;20.10;52.70;;;;;;4977085;28;20257;-70
2022/11/08 13:20:40;;;;;;;2.75;2.55;;;20.10;52.70;;;;;;4975101;28;20280;-70
2022/11/08 13:23:08;;;;;;;3.55;2.92;;;20.10;52.60;;;;;;4993386;28;20205;-70
2022/11/08 13:25:39;;;;;;;3.03;2.72;;;20.00;52.70;;;;;;4993305;28;20255;-70
2022/11/08 13:28:34;;;;;;;3.60;3.22;;;20.00;53.00;;;;;;4993154;28;20221;-70